TRA82W LEPA-EHAM
Flight info
| Callsign | TRA82W |
|---|---|
| Flight time | 1h 58m |
| Altitude | 38000 |
| Route | GALAT N861 OLOXO DCT LOMRA DCT GILUR DCT GERVA DCT ENUPA DCT AVLON DCT ADUTO N873 HELEN |
| Aircraft | B738/M-SDE2E3FGHIJ1RWXY/LB2 |
Departure
| Time | 2026-05-07 16:40 |
|---|---|
| Airport | Palma de Mallorca Airport (LEPA) |
Arrival
| Time | 2026-05-07 18:38 |
|---|---|
| Airport | Amsterdam Airport Schiphol (EHAM) |
| Time | Latitude | Longitude | Altitude | Speed | Heading |
|---|---|---|---|---|---|
| 2026-05-07 15:56 | 39.54720 | 2.73676 | 32 ft | 0 kts | 58° |
| 2026-05-07 16:29 | 39.54720 | 2.73675 | 32 ft | 2 kts | 58° |
| 2026-05-07 16:29 | 39.54707 | 2.73648 | 32 ft | 3 kts | 58° |
| 2026-05-07 16:29 | 39.54694 | 2.73622 | 32 ft | 3 kts | 58° |
| 2026-05-07 16:30 | 39.54692 | 2.73596 | 32 ft | 3 kts | 126° |
| 2026-05-07 16:30 | 39.54711 | 2.73578 | 32 ft | 3 kts | 148° |
| 2026-05-07 16:30 | 39.54723 | 2.73569 | 32 ft | 0 kts | 148° |
| 2026-05-07 16:33 | 39.54722 | 2.73569 | 32 ft | 0 kts | 148° |
| 2026-05-07 16:33 | 39.54706 | 2.73582 | 32 ft | 5 kts | 148° |
| 2026-05-07 16:34 | 39.54673 | 2.73608 | 32 ft | 8 kts | 152° |
| 2026-05-07 16:34 | 39.54620 | 2.73624 | 32 ft | 9 kts | 163° |
| 2026-05-07 16:34 | 39.54561 | 2.73627 | 32 ft | 9 kts | 213° |
| 2026-05-07 16:34 | 39.54521 | 2.73556 | 32 ft | 11 kts | 238° |
| 2026-05-07 16:35 | 39.54478 | 2.73468 | 32 ft | 11 kts | 238° |
| 2026-05-07 16:35 | 39.54437 | 2.73382 | 32 ft | 11 kts | 239° |
| 2026-05-07 16:35 | 39.54395 | 2.73293 | 32 ft | 12 kts | 238° |
| 2026-05-07 16:35 | 39.54359 | 2.73213 | 32 ft | 8 kts | 239° |
| 2026-05-07 16:36 | 39.54321 | 2.73133 | 32 ft | 13 kts | 237° |
| 2026-05-07 16:36 | 39.54269 | 2.73064 | 32 ft | 9 kts | 192° |
| 2026-05-07 16:36 | 39.54225 | 2.73106 | 32 ft | 8 kts | 110° |
| 2026-05-07 16:36 | 39.54219 | 2.73136 | 32 ft | 0 kts | 97° |
| 2026-05-07 16:38 | 39.54215 | 2.73193 | 32 ft | 10 kts | 95° |
| 2026-05-07 16:38 | 39.54210 | 2.73275 | 32 ft | 8 kts | 94° |
| 2026-05-07 16:38 | 39.54210 | 2.73345 | 32 ft | 7 kts | 65° |
| 2026-05-07 16:39 | 39.54226 | 2.73380 | 32 ft | 0 kts | 59° |
| 2026-05-07 16:39 | 39.54253 | 2.73438 | 32 ft | 30 kts | 58° |
| 2026-05-07 16:39 | 39.54483 | 2.73927 | 32 ft | 96 kts | 57° |
| 2026-05-07 16:39 | 39.54934 | 2.74878 | 33 ft | 151 kts | 59° |
| 2026-05-07 16:40 | 39.55513 | 2.76091 | 538 ft | 158 kts | 58° |
| 2026-05-07 16:40 | 39.56107 | 2.77291 | 1292 ft | 159 kts | 57° |
| 2026-05-07 16:40 | 39.56766 | 2.78547 | 1765 ft | 179 kts | 57° |
| 2026-05-07 16:40 | 39.57529 | 2.79982 | 2158 ft | 204 kts | 57° |
| 2026-05-07 16:41 | 39.58339 | 2.81500 | 2963 ft | 205 kts | 57° |
| 2026-05-07 16:41 | 39.59150 | 2.83014 | 3821 ft | 206 kts | 57° |
| 2026-05-07 16:41 | 39.59974 | 2.84568 | 4578 ft | 211 kts | 57° |
| 2026-05-07 16:41 | 39.60807 | 2.86158 | 5347 ft | 215 kts | 57° |
| 2026-05-07 16:42 | 39.61651 | 2.87787 | 6103 ft | 220 kts | 57° |
| 2026-05-07 16:42 | 39.62503 | 2.89447 | 6886 ft | 222 kts | 56° |
| 2026-05-07 16:42 | 39.63620 | 2.90823 | 7629 ft | 226 kts | 29° |
| 2026-05-07 16:42 | 39.65152 | 2.91331 | 8332 ft | 233 kts | 0° |
| 2026-05-07 16:43 | 39.66725 | 2.90803 | 9064 ft | 238 kts | 332° |
| 2026-05-07 16:43 | 39.67974 | 2.89376 | 9776 ft | 243 kts | 308° |
| 2026-05-07 16:43 | 39.68907 | 2.87510 | 10428 ft | 250 kts | 304° |
| 2026-05-07 16:43 | 39.69894 | 2.85579 | 10936 ft | 264 kts | 303° |
| 2026-05-07 16:44 | 39.70939 | 2.83516 | 11334 ft | 283 kts | 302° |
| 2026-05-07 16:44 | 39.72054 | 2.81309 | 11712 ft | 302 kts | 302° |
| 2026-05-07 16:44 | 39.73242 | 2.78950 | 12050 ft | 322 kts | 302° |
| 2026-05-07 16:44 | 39.74504 | 2.76442 | 12380 ft | 341 kts | 302° |
| 2026-05-07 16:45 | 39.75823 | 2.73815 | 12957 ft | 351 kts | 301° |
| 2026-05-07 16:45 | 39.77166 | 2.71138 | 13722 ft | 355 kts | 301° |
| 2026-05-07 16:45 | 39.78521 | 2.68437 | 14495 ft | 359 kts | 301° |
| 2026-05-07 16:45 | 39.79888 | 2.65702 | 15266 ft | 363 kts | 301° |
| 2026-05-07 16:46 | 39.81272 | 2.62933 | 16025 ft | 367 kts | 301° |
| 2026-05-07 16:46 | 39.82670 | 2.60133 | 16757 ft | 371 kts | 300° |
| 2026-05-07 16:46 | 39.84085 | 2.57296 | 17470 ft | 375 kts | 300° |
| 2026-05-07 16:46 | 39.85509 | 2.54439 | 18157 ft | 379 kts | 300° |
| 2026-05-07 16:47 | 39.86955 | 2.51545 | 18879 ft | 382 kts | 300° |
| 2026-05-07 16:47 | 39.88416 | 2.48649 | 19622 ft | 383 kts | 300° |
| 2026-05-07 16:47 | 39.89879 | 2.45737 | 20342 ft | 385 kts | 299° |
| 2026-05-07 16:47 | 39.91340 | 2.42819 | 21023 ft | 387 kts | 299° |
| 2026-05-07 16:48 | 39.92815 | 2.39867 | 21684 ft | 389 kts | 298° |
| 2026-05-07 16:48 | 39.94288 | 2.36913 | 22344 ft | 390 kts | 298° |
| 2026-05-07 16:48 | 39.95769 | 2.33937 | 22971 ft | 392 kts | 297° |
| 2026-05-07 16:48 | 39.97252 | 2.30953 | 23578 ft | 394 kts | 297° |
| 2026-05-07 16:49 | 39.98751 | 2.27954 | 24176 ft | 395 kts | 297° |
| 2026-05-07 16:49 | 40.00259 | 2.24935 | 24678 ft | 399 kts | 297° |
| 2026-05-07 16:49 | 40.01772 | 2.21889 | 25142 ft | 403 kts | 296° |
| 2026-05-07 16:49 | 40.03300 | 2.18802 | 25618 ft | 406 kts | 296° |
| 2026-05-07 16:50 | 40.04837 | 2.15686 | 26076 ft | 410 kts | 296° |
| 2026-05-07 16:50 | 40.06387 | 2.12538 | 26517 ft | 413 kts | 296° |
| 2026-05-07 16:50 | 40.07940 | 2.09377 | 26946 ft | 416 kts | 296° |
| 2026-05-07 16:50 | 40.09512 | 2.06174 | 27363 ft | 420 kts | 295° |
| 2026-05-07 16:51 | 40.11091 | 2.02954 | 27769 ft | 423 kts | 295° |
| 2026-05-07 16:51 | 40.12688 | 1.99713 | 28159 ft | 427 kts | 297° |
| 2026-05-07 16:51 | 40.14706 | 1.96758 | 28526 ft | 446 kts | 312° |
| 2026-05-07 16:51 | 40.17352 | 1.94508 | 28869 ft | 464 kts | 328° |
| 2026-05-07 16:52 | 40.20426 | 1.93060 | 29205 ft | 476 kts | 339° |
| 2026-05-07 16:52 | 40.23682 | 1.92096 | 29533 ft | 483 kts | 343° |
| 2026-05-07 16:52 | 40.27002 | 1.91304 | 29864 ft | 487 kts | 345° |
| 2026-05-07 16:52 | 40.30361 | 1.90551 | 30173 ft | 490 kts | 345° |
| 2026-05-07 16:53 | 40.33729 | 1.89788 | 30523 ft | 492 kts | 345° |
| 2026-05-07 16:53 | 40.37111 | 1.89013 | 30822 ft | 495 kts | 345° |
| 2026-05-07 16:53 | 40.40506 | 1.88231 | 31216 ft | 495 kts | 345° |
| 2026-05-07 16:53 | 40.43895 | 1.87445 | 31679 ft | 493 kts | 345° |
| 2026-05-07 16:54 | 40.47263 | 1.86661 | 32081 ft | 493 kts | 344° |
| 2026-05-07 16:54 | 40.50641 | 1.85875 | 32465 ft | 493 kts | 345° |
| 2026-05-07 16:54 | 40.54022 | 1.85090 | 32863 ft | 492 kts | 344° |
| 2026-05-07 16:54 | 40.57383 | 1.84305 | 33264 ft | 491 kts | 344° |
| 2026-05-07 16:55 | 40.60759 | 1.83516 | 33604 ft | 492 kts | 344° |
| 2026-05-07 16:55 | 40.64118 | 1.82728 | 33986 ft | 491 kts | 344° |
| 2026-05-07 16:55 | 40.67477 | 1.81939 | 34353 ft | 490 kts | 344° |
| 2026-05-07 16:55 | 40.70819 | 1.81153 | 34833 ft | 486 kts | 344° |
| 2026-05-07 16:56 | 40.74149 | 1.80370 | 35208 ft | 485 kts | 344° |
| 2026-05-07 16:56 | 40.77469 | 1.79591 | 35574 ft | 484 kts | 344° |
| 2026-05-07 16:56 | 40.84063 | 1.78036 | 36348 ft | 480 kts | 344° |
| 2026-05-07 16:57 | 40.87354 | 1.77256 | 36673 ft | 479 kts | 344° |
| 2026-05-07 16:57 | 40.90629 | 1.76479 | 37041 ft | 477 kts | 344° |
| 2026-05-07 16:57 | 40.93889 | 1.75705 | 37365 ft | 476 kts | 344° |
| 2026-05-07 16:57 | 40.97150 | 1.74930 | 37569 ft | 477 kts | 344° |
| 2026-05-07 16:58 | 41.00420 | 1.74152 | 37695 ft | 478 kts | 344° |
| 2026-05-07 16:58 | 41.03689 | 1.73374 | 37820 ft | 477 kts | 344° |
| 2026-05-07 16:58 | 41.06951 | 1.72647 | 37938 ft | 476 kts | 347° |
| 2026-05-07 16:58 | 41.10253 | 1.72151 | 37955 ft | 477 kts | 349° |
| 2026-05-07 16:59 | 41.16827 | 1.71226 | 37962 ft | 475 kts | 348° |
| 2026-05-07 16:59 | 41.23410 | 1.70226 | 37964 ft | 476 kts | 348° |
| 2026-05-07 17:00 | 41.28919 | 1.69375 | 37964 ft | 476 kts | 348° |
| 2026-05-07 17:00 | 41.35486 | 1.68356 | 37964 ft | 475 kts | 348° |
| 2026-05-07 17:01 | 41.42042 | 1.67340 | 37964 ft | 475 kts | 348° |
| 2026-05-07 17:01 | 41.48600 | 1.66320 | 37964 ft | 474 kts | 348° |
| 2026-05-07 17:02 | 41.55152 | 1.65298 | 37963 ft | 474 kts | 348° |
| 2026-05-07 17:02 | 41.61693 | 1.64271 | 37964 ft | 474 kts | 348° |
| 2026-05-07 17:03 | 41.68246 | 1.63239 | 37964 ft | 474 kts | 348° |
| 2026-05-07 17:03 | 41.74797 | 1.62205 | 37963 ft | 475 kts | 348° |
| 2026-05-07 17:04 | 41.81359 | 1.61171 | 37963 ft | 474 kts | 348° |
| 2026-05-07 17:04 | 41.87913 | 1.60136 | 37963 ft | 474 kts | 348° |
| 2026-05-07 17:05 | 41.94470 | 1.59097 | 37958 ft | 474 kts | 348° |
| 2026-05-07 17:05 | 42.01036 | 1.58055 | 37956 ft | 474 kts | 348° |
| 2026-05-07 17:06 | 42.07576 | 1.57015 | 37953 ft | 473 kts | 348° |
| 2026-05-07 17:06 | 42.14110 | 1.55980 | 37951 ft | 472 kts | 348° |
| 2026-05-07 17:07 | 42.20590 | 1.54952 | 37949 ft | 472 kts | 348° |
| 2026-05-07 17:07 | 42.27122 | 1.53909 | 37947 ft | 473 kts | 348° |
| 2026-05-07 17:08 | 42.33663 | 1.52860 | 37944 ft | 473 kts | 348° |
| 2026-05-07 17:08 | 42.40243 | 1.51892 | 37940 ft | 475 kts | 353° |
| 2026-05-07 17:09 | 42.46873 | 1.52628 | 37940 ft | 484 kts | 9° |
| 2026-05-07 17:09 | 42.53365 | 1.55117 | 37937 ft | 485 kts | 14° |
| 2026-05-07 17:10 | 42.59805 | 1.57776 | 37934 ft | 483 kts | 14° |
| 2026-05-07 17:10 | 42.66241 | 1.60410 | 37931 ft | 483 kts | 14° |
| 2026-05-07 17:11 | 42.72630 | 1.63015 | 37929 ft | 482 kts | 14° |
| 2026-05-07 17:11 | 42.79065 | 1.65628 | 37931 ft | 482 kts | 14° |
| 2026-05-07 17:12 | 42.85530 | 1.68249 | 37929 ft | 481 kts | 14° |
| 2026-05-07 17:12 | 42.91934 | 1.70855 | 37927 ft | 480 kts | 14° |
| 2026-05-07 17:13 | 42.98338 | 1.73468 | 37926 ft | 479 kts | 14° |
| 2026-05-07 17:13 | 43.04682 | 1.76058 | 37924 ft | 478 kts | 14° |
| 2026-05-07 17:14 | 43.11053 | 1.78662 | 37922 ft | 478 kts | 14° |
| 2026-05-07 17:14 | 43.17458 | 1.81296 | 37921 ft | 477 kts | 14° |
| 2026-05-07 17:15 | 43.23765 | 1.83899 | 37922 ft | 476 kts | 14° |
| 2026-05-07 17:15 | 43.30136 | 1.86533 | 37930 ft | 474 kts | 14° |
| 2026-05-07 17:16 | 43.36419 | 1.89082 | 37933 ft | 473 kts | 12° |
| 2026-05-07 17:16 | 43.42805 | 1.91193 | 37937 ft | 472 kts | 11° |
| 2026-05-07 17:17 | 43.49192 | 1.93274 | 37942 ft | 471 kts | 11° |
| 2026-05-07 17:17 | 43.55576 | 1.95382 | 37946 ft | 471 kts | 11° |
| 2026-05-07 17:18 | 43.61980 | 1.97515 | 37955 ft | 470 kts | 11° |
| 2026-05-07 17:18 | 43.68321 | 1.99637 | 37957 ft | 469 kts | 11° |
| 2026-05-07 17:19 | 43.74680 | 2.01757 | 37957 ft | 469 kts | 11° |
| 2026-05-07 17:19 | 43.81024 | 2.03884 | 37957 ft | 469 kts | 11° |
| 2026-05-07 17:20 | 43.87351 | 2.06014 | 37956 ft | 468 kts | 11° |
| 2026-05-07 17:20 | 43.93688 | 2.08154 | 37956 ft | 469 kts | 11° |
| 2026-05-07 17:21 | 44.00022 | 2.10299 | 37956 ft | 469 kts | 11° |
| 2026-05-07 17:21 | 44.06363 | 2.12451 | 37957 ft | 469 kts | 11° |
| 2026-05-07 17:22 | 44.12696 | 2.14605 | 37959 ft | 468 kts | 11° |
| 2026-05-07 17:22 | 44.19022 | 2.16762 | 37960 ft | 468 kts | 11° |
| 2026-05-07 17:23 | 44.25359 | 2.18928 | 37961 ft | 468 kts | 11° |
| 2026-05-07 17:23 | 44.31684 | 2.21094 | 37962 ft | 468 kts | 11° |
| 2026-05-07 17:24 | 44.38015 | 2.23256 | 37963 ft | 468 kts | 11° |
| 2026-05-07 17:24 | 44.44339 | 2.25432 | 37963 ft | 468 kts | 11° |
| 2026-05-07 17:25 | 44.50661 | 2.27616 | 37964 ft | 468 kts | 11° |
| 2026-05-07 17:25 | 44.56974 | 2.29802 | 37964 ft | 468 kts | 11° |
| 2026-05-07 17:26 | 44.63290 | 2.31992 | 37964 ft | 468 kts | 11° |
| 2026-05-07 17:26 | 44.69586 | 2.34352 | 37964 ft | 468 kts | 13° |
| 2026-05-07 17:27 | 44.75877 | 2.36761 | 37964 ft | 468 kts | 12° |
| 2026-05-07 17:27 | 44.82157 | 2.39167 | 37964 ft | 468 kts | 12° |
| 2026-05-07 17:28 | 44.88432 | 2.41575 | 37964 ft | 468 kts | 12° |
| 2026-05-07 17:28 | 44.94714 | 2.43990 | 37964 ft | 467 kts | 12° |
| 2026-05-07 17:29 | 45.00988 | 2.46391 | 37964 ft | 467 kts | 12° |
| 2026-05-07 17:29 | 45.07262 | 2.48797 | 37964 ft | 467 kts | 12° |
| 2026-05-07 17:30 | 45.13532 | 2.51210 | 37966 ft | 467 kts | 12° |
| 2026-05-07 17:30 | 45.19798 | 2.53630 | 37967 ft | 467 kts | 12° |
| 2026-05-07 17:31 | 45.26074 | 2.56060 | 37968 ft | 467 kts | 12° |
| 2026-05-07 17:31 | 45.32328 | 2.58488 | 37968 ft | 466 kts | 12° |
| 2026-05-07 17:32 | 45.38588 | 2.60924 | 37968 ft | 466 kts | 12° |
| 2026-05-07 17:32 | 45.43786 | 2.62951 | 37970 ft | 466 kts | 12° |
| 2026-05-07 17:33 | 45.51100 | 2.65810 | 37968 ft | 466 kts | 12° |
| 2026-05-07 17:33 | 45.57344 | 2.68257 | 37969 ft | 466 kts | 12° |
| 2026-05-07 17:34 | 45.63601 | 2.70716 | 37969 ft | 466 kts | 12° |
| 2026-05-07 17:34 | 45.69848 | 2.73176 | 37968 ft | 466 kts | 12° |
| 2026-05-07 17:35 | 45.76101 | 2.75637 | 37968 ft | 466 kts | 12° |
| 2026-05-07 17:35 | 45.82313 | 2.78087 | 37970 ft | 465 kts | 12° |
| 2026-05-07 17:36 | 45.88592 | 2.80579 | 37972 ft | 465 kts | 12° |
| 2026-05-07 17:36 | 45.94838 | 2.83066 | 37973 ft | 465 kts | 12° |
| 2026-05-07 17:37 | 46.01040 | 2.85543 | 37976 ft | 465 kts | 13° |
| 2026-05-07 17:37 | 46.07093 | 2.88989 | 37978 ft | 467 kts | 26° |
| 2026-05-07 17:38 | 46.12563 | 2.93980 | 37982 ft | 469 kts | 32° |
| 2026-05-07 17:38 | 46.17972 | 2.99258 | 37985 ft | 469 kts | 32° |
| 2026-05-07 17:39 | 46.23370 | 3.04532 | 37992 ft | 469 kts | 32° |
| 2026-05-07 17:39 | 46.28774 | 3.09820 | 37993 ft | 469 kts | 32° |
| 2026-05-07 17:40 | 46.33296 | 3.14252 | 37992 ft | 468 kts | 32° |
| 2026-05-07 17:40 | 46.38694 | 3.19506 | 37991 ft | 468 kts | 31° |
| 2026-05-07 17:41 | 46.44104 | 3.24771 | 37991 ft | 468 kts | 32° |
| 2026-05-07 17:41 | 46.49462 | 3.30042 | 37991 ft | 468 kts | 32° |
| 2026-05-07 17:42 | 46.54884 | 3.35404 | 37991 ft | 468 kts | 32° |
| 2026-05-07 17:42 | 46.60225 | 3.40701 | 37994 ft | 468 kts | 32° |
| 2026-05-07 17:43 | 46.65880 | 3.45283 | 37995 ft | 464 kts | 20° |
| 2026-05-07 17:43 | 46.71994 | 3.48178 | 37995 ft | 460 kts | 12° |
| 2026-05-07 17:44 | 46.78186 | 3.50543 | 37995 ft | 460 kts | 12° |
| 2026-05-07 17:44 | 46.84362 | 3.52934 | 37996 ft | 460 kts | 12° |
| 2026-05-07 17:45 | 46.90545 | 3.55349 | 37996 ft | 459 kts | 12° |
| 2026-05-07 17:45 | 46.96706 | 3.57768 | 37996 ft | 459 kts | 12° |
| 2026-05-07 17:46 | 47.02869 | 3.60180 | 37996 ft | 458 kts | 12° |
| 2026-05-07 17:46 | 47.09014 | 3.62596 | 37999 ft | 458 kts | 12° |
| 2026-05-07 17:47 | 47.15172 | 3.65028 | 38000 ft | 457 kts | 12° |
| 2026-05-07 17:47 | 47.21312 | 3.67462 | 38001 ft | 457 kts | 12° |
| 2026-05-07 17:48 | 47.27453 | 3.69893 | 38003 ft | 457 kts | 12° |
| 2026-05-07 17:48 | 47.33582 | 3.72331 | 38006 ft | 456 kts | 12° |
| 2026-05-07 17:49 | 47.39706 | 3.74781 | 38008 ft | 456 kts | 12° |
| 2026-05-07 17:49 | 47.45831 | 3.77239 | 38011 ft | 456 kts | 12° |
| 2026-05-07 17:50 | 47.51985 | 3.79682 | 38013 ft | 454 kts | 9° |
| 2026-05-07 17:50 | 47.58167 | 3.80646 | 38019 ft | 448 kts | 355° |
| 2026-05-07 17:51 | 47.64412 | 3.79966 | 38022 ft | 446 kts | 352° |
| 2026-05-07 17:51 | 47.70595 | 3.79134 | 38025 ft | 446 kts | 351° |
| 2026-05-07 17:52 | 47.76725 | 3.78279 | 38029 ft | 446 kts | 351° |
| 2026-05-07 17:52 | 47.82902 | 3.77400 | 38034 ft | 446 kts | 351° |
| 2026-05-07 17:53 | 47.89077 | 3.76509 | 38037 ft | 445 kts | 351° |
| 2026-05-07 17:53 | 47.95248 | 3.75620 | 38040 ft | 445 kts | 351° |
| 2026-05-07 17:54 | 48.01413 | 3.74725 | 38043 ft | 445 kts | 351° |
| 2026-05-07 17:54 | 48.07576 | 3.73824 | 38045 ft | 445 kts | 351° |
| 2026-05-07 17:55 | 48.13744 | 3.72919 | 38046 ft | 445 kts | 351° |
| 2026-05-07 17:55 | 48.19920 | 3.72010 | 38048 ft | 446 kts | 351° |
| 2026-05-07 17:56 | 48.26088 | 3.71099 | 38049 ft | 446 kts | 351° |
| 2026-05-07 17:56 | 48.32254 | 3.70185 | 38049 ft | 445 kts | 351° |
| 2026-05-07 17:57 | 48.37385 | 3.69424 | 38050 ft | 445 kts | 351° |
| 2026-05-07 17:57 | 48.44587 | 3.68352 | 38049 ft | 446 kts | 351° |
| 2026-05-07 17:58 | 48.50762 | 3.67430 | 38048 ft | 446 kts | 351° |
| 2026-05-07 17:58 | 48.56933 | 3.66506 | 38048 ft | 446 kts | 351° |
| 2026-05-07 17:59 | 48.63110 | 3.65579 | 38047 ft | 446 kts | 351° |
| 2026-05-07 17:59 | 48.69279 | 3.64652 | 38049 ft | 446 kts | 351° |
| 2026-05-07 18:00 | 48.75462 | 3.63719 | 38049 ft | 446 kts | 351° |
| 2026-05-07 18:00 | 48.81636 | 3.62786 | 38048 ft | 446 kts | 351° |
| 2026-05-07 18:01 | 48.87819 | 3.61849 | 38048 ft | 446 kts | 351° |
| 2026-05-07 18:01 | 48.93999 | 3.60911 | 38049 ft | 446 kts | 351° |
| 2026-05-07 18:02 | 49.03262 | 3.59500 | 38049 ft | 446 kts | 351° |
| 2026-05-07 18:03 | 49.09448 | 3.58554 | 38049 ft | 446 kts | 352° |
| 2026-05-07 18:03 | 49.15624 | 3.57608 | 38049 ft | 446 kts | 352° |
| 2026-05-07 18:04 | 49.21806 | 3.56658 | 38052 ft | 446 kts | 352° |
| 2026-05-07 18:04 | 49.27994 | 3.55705 | 38055 ft | 447 kts | 352° |
| 2026-05-07 18:05 | 49.34184 | 3.54749 | 38055 ft | 447 kts | 352° |
| 2026-05-07 18:05 | 49.40368 | 3.53792 | 38055 ft | 447 kts | 352° |
| 2026-05-07 18:06 | 49.46557 | 3.52832 | 38055 ft | 447 kts | 352° |
| 2026-05-07 18:06 | 49.52749 | 3.51869 | 38056 ft | 447 kts | 352° |
| 2026-05-07 18:07 | 49.58934 | 3.50904 | 38056 ft | 447 kts | 352° |
| 2026-05-07 18:07 | 49.65088 | 3.49942 | 38056 ft | 447 kts | 352° |
| 2026-05-07 18:08 | 49.71285 | 3.48971 | 38057 ft | 447 kts | 352° |
| 2026-05-07 18:08 | 49.77515 | 3.47991 | 38057 ft | 447 kts | 352° |
| 2026-05-07 18:09 | 49.83703 | 3.47017 | 38058 ft | 447 kts | 352° |
| 2026-05-07 18:09 | 49.89901 | 3.46037 | 38058 ft | 447 kts | 352° |
| 2026-05-07 18:10 | 49.96095 | 3.45056 | 38069 ft | 447 kts | 352° |
| 2026-05-07 18:10 | 50.02284 | 3.44072 | 38066 ft | 447 kts | 352° |
| 2026-05-07 18:11 | 50.08481 | 3.43087 | 38067 ft | 448 kts | 352° |
| 2026-05-07 18:11 | 50.14683 | 3.42097 | 37741 ft | 448 kts | 352° |
| 2026-05-07 18:11 | 50.17784 | 3.41601 | 37490 ft | 446 kts | 352° |
| 2026-05-07 18:12 | 50.20826 | 3.41117 | 37245 ft | 446 kts | 352° |
| 2026-05-07 18:12 | 50.23915 | 3.40624 | 36742 ft | 445 kts | 352° |
| 2026-05-07 18:12 | 50.27026 | 3.40126 | 36248 ft | 441 kts | 352° |
| 2026-05-07 18:12 | 50.30062 | 3.39638 | 35791 ft | 437 kts | 351° |
| 2026-05-07 18:13 | 50.33038 | 3.39167 | 35344 ft | 434 kts | 353° |
| 2026-05-07 18:13 | 50.36046 | 3.39229 | 34954 ft | 433 kts | 4° |
| 2026-05-07 18:13 | 50.38963 | 3.40294 | 34586 ft | 430 kts | 15° |
| 2026-05-07 18:13 | 50.41851 | 3.41677 | 34175 ft | 426 kts | 14° |
| 2026-05-07 18:14 | 50.44638 | 3.42958 | 33762 ft | 422 kts | 14° |
| 2026-05-07 18:14 | 50.47446 | 3.44252 | 33320 ft | 419 kts | 14° |
| 2026-05-07 18:14 | 50.50237 | 3.45543 | 32883 ft | 416 kts | 14° |
| 2026-05-07 18:14 | 50.53007 | 3.46829 | 32311 ft | 417 kts | 14° |
| 2026-05-07 18:15 | 50.55810 | 3.48134 | 31655 ft | 420 kts | 14° |
| 2026-05-07 18:15 | 50.58611 | 3.49442 | 31157 ft | 419 kts | 14° |
| 2026-05-07 18:15 | 50.61390 | 3.50741 | 30721 ft | 416 kts | 14° |
| 2026-05-07 18:15 | 50.64168 | 3.52042 | 30044 ft | 418 kts | 14° |
| 2026-05-07 18:16 | 50.66973 | 3.53359 | 29360 ft | 422 kts | 14° |
| 2026-05-07 18:16 | 50.69770 | 3.54674 | 28862 ft | 419 kts | 14° |
| 2026-05-07 18:16 | 50.72553 | 3.55984 | 28405 ft | 416 kts | 14° |
| 2026-05-07 18:16 | 50.75329 | 3.57281 | 27972 ft | 412 kts | 14° |
| 2026-05-07 18:17 | 50.78065 | 3.58559 | 27548 ft | 409 kts | 14° |
| 2026-05-07 18:17 | 50.80784 | 3.59832 | 27131 ft | 405 kts | 14° |
| 2026-05-07 18:17 | 50.83451 | 3.61084 | 26721 ft | 395 kts | 14° |
| 2026-05-07 18:17 | 50.86053 | 3.62309 | 26324 ft | 386 kts | 14° |
| 2026-05-07 18:18 | 50.88603 | 3.63512 | 25934 ft | 378 kts | 14° |
| 2026-05-07 18:18 | 50.91101 | 3.64691 | 25555 ft | 374 kts | 14° |
| 2026-05-07 18:18 | 50.93595 | 3.65872 | 25171 ft | 374 kts | 14° |
| 2026-05-07 18:18 | 50.96082 | 3.67050 | 24788 ft | 373 kts | 14° |
| 2026-05-07 18:19 | 50.98564 | 3.68227 | 24405 ft | 372 kts | 14° |
| 2026-05-07 18:19 | 51.01034 | 3.69401 | 24018 ft | 367 kts | 14° |
| 2026-05-07 18:19 | 51.03458 | 3.70554 | 23643 ft | 360 kts | 14° |
| 2026-05-07 18:19 | 51.05842 | 3.71690 | 23277 ft | 355 kts | 14° |
| 2026-05-07 18:20 | 51.08203 | 3.72816 | 22912 ft | 355 kts | 15° |
| 2026-05-07 18:20 | 51.10569 | 3.73945 | 22544 ft | 355 kts | 15° |
| 2026-05-07 18:20 | 51.12933 | 3.75075 | 22197 ft | 354 kts | 15° |
| 2026-05-07 18:20 | 51.15260 | 3.76189 | 22121 ft | 344 kts | 15° |
| 2026-05-07 18:21 | 51.17526 | 3.77274 | 22062 ft | 334 kts | 15° |
| 2026-05-07 18:21 | 51.19725 | 3.78328 | 21941 ft | 328 kts | 15° |
| 2026-05-07 18:21 | 51.21906 | 3.79376 | 21683 ft | 325 kts | 15° |
| 2026-05-07 18:21 | 51.24070 | 3.80415 | 21473 ft | 333 kts | 15° |
| 2026-05-07 18:22 | 51.25592 | 3.81148 | 21227 ft | 355 kts | 15° |
| 2026-05-07 18:22 | 51.27196 | 3.81919 | 20934 ft | 370 kts | 15° |
| 2026-05-07 18:22 | 51.30548 | 3.83535 | 20307 ft | 382 kts | 15° |
| 2026-05-07 18:22 | 51.33090 | 3.84761 | 19831 ft | 381 kts | 15° |
| 2026-05-07 18:23 | 51.35627 | 3.85986 | 19361 ft | 379 kts | 15° |
| 2026-05-07 18:23 | 51.38147 | 3.87205 | 18908 ft | 376 kts | 15° |
| 2026-05-07 18:23 | 51.40630 | 3.88408 | 18531 ft | 371 kts | 15° |
| 2026-05-07 18:23 | 51.43084 | 3.89598 | 18128 ft | 367 kts | 15° |
| 2026-05-07 18:24 | 51.45523 | 3.90782 | 17675 ft | 365 kts | 15° |
| 2026-05-07 18:24 | 51.47954 | 3.91963 | 17096 ft | 366 kts | 15° |
| 2026-05-07 18:24 | 51.50407 | 3.93156 | 16470 ft | 369 kts | 16° |
| 2026-05-07 18:24 | 51.52840 | 3.94341 | 15842 ft | 363 kts | 16° |
| 2026-05-07 18:25 | 51.55250 | 3.95516 | 15216 ft | 360 kts | 16° |
| 2026-05-07 18:25 | 51.57625 | 3.96675 | 14590 ft | 355 kts | 16° |
| 2026-05-07 18:25 | 51.59967 | 3.97820 | 13965 ft | 350 kts | 16° |
| 2026-05-07 18:25 | 51.62288 | 3.98945 | 13338 ft | 346 kts | 16° |
| 2026-05-07 18:26 | 51.64578 | 4.00060 | 12713 ft | 342 kts | 16° |
| 2026-05-07 18:26 | 51.66851 | 4.01171 | 11984 ft | 342 kts | 16° |
| 2026-05-07 18:26 | 51.69134 | 4.02291 | 11206 ft | 342 kts | 16° |
| 2026-05-07 18:26 | 51.71405 | 4.03408 | 10527 ft | 340 kts | 17° |
| 2026-05-07 18:27 | 51.73630 | 4.04505 | 10257 ft | 327 kts | 17° |
| 2026-05-07 18:27 | 51.75749 | 4.05551 | 10104 ft | 310 kts | 17° |
| 2026-05-07 18:27 | 51.77756 | 4.06544 | 9939 ft | 298 kts | 17° |
| 2026-05-07 18:27 | 51.79729 | 4.07521 | 9687 ft | 294 kts | 17° |
| 2026-05-07 18:28 | 51.81670 | 4.08483 | 9436 ft | 290 kts | 17° |
| 2026-05-07 18:28 | 51.83590 | 4.09436 | 9186 ft | 288 kts | 17° |
| 2026-05-07 18:28 | 51.85507 | 4.10387 | 8936 ft | 288 kts | 17° |
| 2026-05-07 18:28 | 51.87435 | 4.11344 | 8687 ft | 291 kts | 17° |
| 2026-05-07 18:29 | 51.89374 | 4.12312 | 8436 ft | 292 kts | 18° |
| 2026-05-07 18:29 | 51.91233 | 4.13563 | 8185 ft | 289 kts | 28° |
| 2026-05-07 18:29 | 51.92926 | 4.15294 | 7934 ft | 286 kts | 37° |
| 2026-05-07 18:29 | 51.94490 | 4.17258 | 7685 ft | 284 kts | 40° |
| 2026-05-07 18:30 | 51.96007 | 4.19293 | 7436 ft | 282 kts | 40° |
| 2026-05-07 18:30 | 51.97519 | 4.21317 | 7236 ft | 280 kts | 40° |
| 2026-05-07 18:30 | 51.99029 | 4.23337 | 6972 ft | 283 kts | 40° |
| 2026-05-07 18:30 | 52.00547 | 4.25366 | 6654 ft | 282 kts | 40° |
| 2026-05-07 18:31 | 52.02062 | 4.27391 | 6351 ft | 278 kts | 40° |
| 2026-05-07 18:31 | 52.03524 | 4.29345 | 6099 ft | 268 kts | 40° |
| 2026-05-07 18:31 | 52.04943 | 4.31242 | 5845 ft | 259 kts | 40° |
| 2026-05-07 18:31 | 52.06310 | 4.33068 | 5592 ft | 251 kts | 40° |
| 2026-05-07 18:32 | 52.07638 | 4.34844 | 5339 ft | 244 kts | 40° |
| 2026-05-07 18:32 | 52.08934 | 4.36578 | 5088 ft | 240 kts | 40° |
| 2026-05-07 18:32 | 52.10213 | 4.38290 | 4837 ft | 237 kts | 40° |
| 2026-05-07 18:32 | 52.11477 | 4.39982 | 4586 ft | 234 kts | 40° |
| 2026-05-07 18:33 | 52.12726 | 4.41656 | 4336 ft | 232 kts | 40° |
| 2026-05-07 18:33 | 52.13968 | 4.43319 | 4087 ft | 231 kts | 40° |
| 2026-05-07 18:33 | 52.15203 | 4.44974 | 3837 ft | 229 kts | 40° |
| 2026-05-07 18:33 | 52.16412 | 4.46595 | 3660 ft | 220 kts | 40° |
| 2026-05-07 18:34 | 52.17566 | 4.48141 | 3509 ft | 209 kts | 41° |
| 2026-05-07 18:34 | 52.18684 | 4.49618 | 3227 ft | 206 kts | 37° |
| 2026-05-07 18:34 | 52.20013 | 4.50415 | 3005 ft | 206 kts | 17° |
| 2026-05-07 18:34 | 52.21181 | 4.51626 | 2909 ft | 196 kts | 56° |
| 2026-05-07 18:35 | 52.21700 | 4.53585 | 2774 ft | 188 kts | 70° |
| 2026-05-07 18:35 | 52.22212 | 4.55511 | 2520 ft | 183 kts | 65° |
| 2026-05-07 18:35 | 52.22779 | 4.57353 | 2273 ft | 179 kts | 64° |
| 2026-05-07 18:35 | 52.23346 | 4.59133 | 2056 ft | 172 kts | 62° |
| 2026-05-07 18:36 | 52.23938 | 4.60772 | 1823 ft | 168 kts | 59° |
| 2026-05-07 18:36 | 52.24550 | 4.62383 | 1597 ft | 165 kts | 58° |
| 2026-05-07 18:36 | 52.25155 | 4.63962 | 1378 ft | 164 kts | 58° |
| 2026-05-07 18:36 | 52.25771 | 4.65564 | 1162 ft | 162 kts | 58° |
| 2026-05-07 18:37 | 52.26351 | 4.67070 | 951 ft | 152 kts | 58° |
| 2026-05-07 18:37 | 52.26902 | 4.68501 | 768 ft | 145 kts | 58° |
| 2026-05-07 18:37 | 52.27432 | 4.69880 | 566 ft | 142 kts | 57° |
| 2026-05-07 18:37 | 52.27952 | 4.71235 | 366 ft | 140 kts | 58° |
| 2026-05-07 18:38 | 52.28451 | 4.72548 | 169 ft | 137 kts | 58° |
| 2026-05-07 18:38 | 52.28956 | 4.73849 | 33 ft | 133 kts | 58° |
| 2026-05-07 18:38 | 52.29390 | 4.74969 | 13 ft | 88 kts | 58° |
| 2026-05-07 18:38 | 52.29525 | 4.75311 | 13 ft | 24 kts | 43° |
| 2026-05-07 18:39 | 52.29653 | 4.75324 | 13 ft | 4 kts | 331° |
| 2026-05-07 18:39 | 52.29670 | 4.75308 | 13 ft | 3 kts | 331° |
| 2026-05-07 18:39 | 52.29717 | 4.75281 | 13 ft | 4 kts | 359° |
| 2026-05-07 18:39 | 52.29759 | 4.75322 | 13 ft | 9 kts | 64° |
| 2026-05-07 18:40 | 52.29779 | 4.75398 | 13 ft | 6 kts | 66° |
| 2026-05-07 18:40 | 52.29792 | 4.75445 | 13 ft | 3 kts | 66° |
| 2026-05-07 18:40 | 52.29802 | 4.75482 | 13 ft | 8 kts | 66° |
| 2026-05-07 18:40 | 52.29831 | 4.75579 | 13 ft | 10 kts | 58° |
| 2026-05-07 18:41 | 52.29863 | 4.75657 | 13 ft | 7 kts | 53° |
| 2026-05-07 18:41 | 52.29892 | 4.75724 | 13 ft | 7 kts | 58° |
| 2026-05-07 18:41 | 52.29931 | 4.75825 | 13 ft | 15 kts | 58° |
| 2026-05-07 18:41 | 52.29983 | 4.75969 | 13 ft | 13 kts | 59° |
| 2026-05-07 18:42 | 52.30025 | 4.76080 | 13 ft | 12 kts | 58° |
| 2026-05-07 18:42 | 52.30071 | 4.76196 | 13 ft | 13 kts | 57° |
| 2026-05-07 18:42 | 52.30124 | 4.76332 | 13 ft | 16 kts | 58° |
| 2026-05-07 18:42 | 52.30177 | 4.76473 | 13 ft | 13 kts | 59° |
| 2026-05-07 18:43 | 52.30228 | 4.76604 | 13 ft | 15 kts | 59° |
| 2026-05-07 18:43 | 52.30276 | 4.76720 | 13 ft | 10 kts | 37° |
| 2026-05-07 18:43 | 52.30343 | 4.76721 | 13 ft | 11 kts | 354° |
| 2026-05-07 18:43 | 52.30389 | 4.76777 | 13 ft | 7 kts | 53° |
| 2026-05-07 18:44 | 52.30410 | 4.76825 | 13 ft | 4 kts | 47° |
| 2026-05-07 18:44 | 52.30428 | 4.76821 | 13 ft | 5 kts | 330° |
| 2026-05-07 18:44 | 52.30465 | 4.76779 | 13 ft | 0 kts | 325° |
| 2026-05-07 18:44 | 52.30466 | 4.76779 | 13 ft | 0 kts | 325° |